Time;durP1;ratioP1;P1;durP2;ratioP2;P2;SDS_P1;SDS_P2;PMS_P1;PMS_P2;Temp;Humidity;BMP_temperature;BMP_pressure;BME280_temperature;BME280_humidity;BME280_pressure;Samples;Min_cycle;Max_cycle;Signal;HPM_P1;HPM_P2
2023/09/07 00:01:13;;;;;;;3.13;2.35;;;22.90;95.00;;;;;;5018372;28;45178;-61
2023/09/07 00:03:41;;;;;;;3.05;2.25;;;22.80;95.00;;;;;;5020599;28;45437;-61
2023/09/07 00:06:08;;;;;;;4.32;2.17;;;22.90;95.10;;;;;;5014145;28;45101;-61
2023/09/07 00:08:35;;;;;;;2.95;2.50;;;22.90;95.10;;;;;;5018648;28;45077;-61
2023/09/07 00:11:04;;;;;;;5.43;2.60;;;22.90;95.10;;;;;;5026612;28;44632;-62
2023/09/07 00:13:31;;;;;;;5.45;2.50;;;22.90;95.10;;;;;;5017863;28;45202;-61
2023/09/07 00:16:00;;;;;;;6.25;2.38;;;22.90;95.10;;;;;;5016549;28;45285;-62
2023/09/07 00:18:27;;;;;;;3.25;2.65;;;22.90;95.10;;;;;;5025267;28;45258;-61
2023/09/07 00:20:55;;;;;;;3.67;2.40;;;22.90;95.10;;;;;;5034097;28;45302;-61
2023/09/07 00:23:22;;;;;;;3.92;2.58;;;22.90;95.10;;;;;;5014749;28;45175;-61
2023/09/07 00:25:49;;;;;;;3.75;2.38;;;22.90;95.10;;;;;;5012647;28;45101;-62
2023/09/07 00:28:16;;;;;;;2.33;2.00;;;22.90;95.10;;;;;;5015131;28;45151;-62
2023/09/07 00:30:43;;;;;;;3.58;2.45;;;22.90;95.10;;;;;;5013529;28;45093;-61
2023/09/07 00:33:11;;;;;;;2.97;2.40;;;22.90;95.10;;;;;;5024345;28;46922;-62
2023/09/07 00:35:38;;;;;;;3.38;2.03;;;22.90;95.10;;;;;;5017270;28;45204;-62
2023/09/07 00:38:06;;;;;;;3.00;2.25;;;22.90;95.10;;;;;;5016847;28;45165;-62
2023/09/07 00:40:33;;;;;;;3.38;2.35;;;22.90;95.10;;;;;;5020722;28;45150;-61
2023/09/07 00:43:00;;;;;;;4.68;2.53;;;22.90;95.10;;;;;;5021397;28;46984;-62
2023/09/07 00:45:27;;;;;;;3.78;2.42;;;22.90;95.10;;;;;;5025007;28;45115;-62
2023/09/07 00:47:54;;;;;;;6.03;2.38;;;22.90;95.10;;;;;;5022246;28;45192;-62
2023/09/07 00:50:21;;;;;;;4.38;2.50;;;22.90;95.10;;;;;;5014225;28;45169;-61
2023/09/07 00:52:48;;;;;;;3.80;2.50;;;22.90;95.10;;;;;;5022370;28;46241;-61
2023/09/07 00:55:17;;;;;;;3.38;2.50;;;22.90;95.10;;;;;;5025938;28;45035;-62
2023/09/07 00:57:44;;;;;;;2.97;2.30;;;22.90;95.10;;;;;;5025809;28;45155;-61
2023/09/07 01:00:12;;;;;;;2.17;1.95;;;22.90;95.10;;;;;;5008693;28;45018;-62
2023/09/07 01:02:39;;;;;;;4.00;2.50;;;22.90;95.10;;;;;;5018363;28;45336;-62
2023/09/07 01:05:07;;;;;;;3.00;2.20;;;22.90;95.10;;;;;;5025482;28;44706;-62
2023/09/07 01:07:38;;;;;;;3.13;2.47;;;22.90;95.10;;;;;;5026340;28;44934;-62
2023/09/07 01:10:07;;;;;;;3.75;2.65;;;22.90;95.10;;;;;;5033004;28;45332;-62
2023/09/07 01:12:35;;;;;;;2.85;2.30;;;22.90;95.10;;;;;;5010695;28;45406;-61
2023/09/07 01:15:04;;;;;;;3.65;2.30;;;22.90;95.10;;;;;;5025774;28;45084;-62
2023/09/07 01:17:31;;;;;;;2.92;2.33;;;22.90;95.10;;;;;;5024006;28;45225;-61
2023/09/07 01:20:05;;;;;;;3.55;2.50;;;22.80;95.10;;;;;;5009548;28;45180;-61
2023/09/07 01:22:34;;;;;;;4.60;2.70;;;22.80;95.10;;;;;;5012468;28;45196;-62
2023/09/07 01:25:04;;;;;;;3.50;2.25;;;22.80;95.40;;;;;;5019699;28;45100;-62
2023/09/07 01:27:31;;;;;;;4.32;2.33;;;22.80;95.10;;;;;;5025277;28;45298;-62
2023/09/07 01:29:58;;;;;;;3.17;2.20;;;22.80;95.00;;;;;;5013642;28;45163;-62
2023/09/07 01:32:25;;;;;;;3.83;2.22;;;22.80;95.00;;;;;;5015933;28;45231;-61
2023/09/07 01:34:56;;;;;;;3.90;2.30;;;22.80;94.90;;;;;;5023630;28;45195;-62
2023/09/07 01:37:22;;;;;;;3.63;2.65;;;22.80;94.80;;;;;;5020038;28;44624;-62
2023/09/07 01:39:50;;;;;;;2.60;2.15;;;22.80;94.90;;;;;;5013161;28;45156;-61
2023/09/07 01:42:17;;;;;;;2.92;2.15;;;22.80;94.80;;;;;;5012826;28;46527;-62
2023/09/07 01:44:45;;;;;;;3.58;2.42;;;22.80;94.80;;;;;;5010063;28;45635;-62
2023/09/07 01:47:11;;;;;;;4.82;2.63;;;22.80;94.80;;;;;;5022281;28;45049;-62
2023/09/07 01:49:38;;;;;;;3.10;2.25;;;22.80;95.00;;;;;;5017748;28;45262;-62
2023/09/07 01:52:06;;;;;;;2.47;2.28;;;22.80;94.80;;;;;;5025069;28;45361;-62
2023/09/07 01:54:33;;;;;;;3.63;2.70;;;22.80;94.80;;;;;;5024400;28;45268;-61
2023/09/07 01:57:02;;;;;;;2.72;2.10;;;22.80;94.80;;;;;;5016200;28;45099;-62
2023/09/07 01:59:29;;;;;;;2.60;2.15;;;22.80;94.80;;;;;;5020181;28;45146;-62
2023/09/07 02:01:55;;;;;;;3.63;2.50;;;22.80;94.80;;;;;;5013105;28;46987;-62
2023/09/07 02:04:22;;;;;;;3.65;2.78;;;22.80;94.90;;;;;;5012338;28;45332;-62
2023/09/07 02:06:49;;;;;;;3.03;2.22;;;22.80;94.80;;;;;;5013667;28;45072;-62
2023/09/07 02:09:16;;;;;;;3.17;2.70;;;22.80;94.80;;;;;;5016516;28;45053;-62
2023/09/07 02:11:42;;;;;;;3.33;2.65;;;22.80;94.80;;;;;;5010448;28;46020;-61
2023/09/07 02:14:10;;;;;;;3.38;2.40;;;22.80;94.80;;;;;;5021228;28;44753;-62
2023/09/07 02:16:37;;;;;;;4.75;2.63;;;22.80;94.90;;;;;;5022354;28;45215;-62
2023/09/07 02:19:06;;;;;;;4.25;2.83;;;22.70;94.80;;;;;;5023475;28;45178;-62
2023/09/07 02:21:33;;;;;;;4.00;2.90;;;22.80;94.80;;;;;;5019227;28;46223;-61
2023/09/07 02:24:00;;;;;;;4.30;2.53;;;22.80;94.80;;;;;;5012861;28;45071;-62
2023/09/07 02:26:27;;;;;;;2.95;2.40;;;22.80;94.80;;;;;;5017981;28;45349;-62
2023/09/07 02:28:54;;;;;;;2.88;2.42;;;22.80;94.80;;;;;;5013794;28;45041;-62
2023/09/07 02:31:22;;;;;;;3.72;2.60;;;22.80;94.80;;;;;;5010321;28;45206;-62
2023/09/07 02:33:49;;;;;;;3.63;2.67;;;22.80;94.80;;;;;;5015222;28;45187;-61
2023/09/07 02:36:15;;;;;;;2.60;2.28;;;22.80;94.80;;;;;;5018781;28;45184;-61
2023/09/07 02:38:42;;;;;;;3.47;2.63;;;22.80;94.80;;;;;;5010258;28;45258;-62
2023/09/07 02:41:09;;;;;;;3.75;2.50;;;22.80;94.80;;;;;;5008100;28;46249;-61
2023/09/07 02:43:35;;;;;;;2.85;2.10;;;22.80;94.70;;;;;;5010471;28;45049;-61
2023/09/07 02:46:02;;;;;;;3.60;2.55;;;22.80;94.70;;;;;;5011085;28;45020;-62
2023/09/07 02:48:30;;;;;;;5.03;2.60;;;22.80;95.10;;;;;;5020226;28;45281;-61
2023/09/07 02:50:58;;;;;;;4.03;2.08;;;22.70;94.70;;;;;;5014200;28;46208;-61
2023/09/07 02:53:24;;;;;;;5.68;2.60;;;22.80;94.70;;;;;;5024544;28;45119;-61
2023/09/07 02:55:51;;;;;;;3.88;2.65;;;22.80;94.70;;;;;;5022575;28;45180;-62
2023/09/07 02:58:18;;;;;;;4.22;2.63;;;22.80;94.70;;;;;;5014671;28;45212;-61
2023/09/07 03:00:46;;;;;;;3.47;2.33;;;22.80;94.70;;;;;;5017664;28;45455;-61
2023/09/07 03:03:14;;;;;;;4.80;2.65;;;22.70;94.70;;;;;;5018134;28;44957;-62
2023/09/07 03:05:43;;;;;;;2.70;2.28;;;22.70;94.60;;;;;;5010151;28;45187;-61
2023/09/07 03:08:09;;;;;;;3.80;2.55;;;22.70;94.60;;;;;;5024287;28;45049;-62
2023/09/07 03:10:37;;;;;;;6.30;2.40;;;22.70;94.60;;;;;;5022400;28;46216;-62
2023/09/07 03:13:04;;;;;;;2.45;2.10;;;22.70;94.50;;;;;;5022605;28;45119;-62
2023/09/07 03:15:31;;;;;;;3.13;2.45;;;22.70;94.60;;;;;;5018443;28;45099;-61
2023/09/07 03:17:58;;;;;;;5.45;2.90;;;22.70;94.50;;;;;;5019889;28;45108;-62
2023/09/07 03:20:25;;;;;;;3.33;2.45;;;22.70;94.50;;;;;;5010413;28;45215;-62
2023/09/07 03:22:53;;;;;;;4.38;2.47;;;22.70;94.90;;;;;;5022284;28;45151;-62
2023/09/07 03:25:20;;;;;;;3.35;2.35;;;22.70;94.40;;;;;;5023319;28;45107;-62
2023/09/07 03:27:47;;;;;;;6.03;2.72;;;22.70;94.40;;;;;;5023065;28;45122;-61
2023/09/07 03:30:13;;;;;;;4.82;2.70;;;22.70;94.40;;;;;;5013290;28;45257;-61
2023/09/07 03:32:40;;;;;;;3.53;2.50;;;22.70;94.80;;;;;;5017972;28;45094;-61
2023/09/07 03:35:09;;;;;;;2.67;2.15;;;22.80;94.40;;;;;;5016277;28;45133;-61
2023/09/07 03:37:37;;;;;;;3.53;2.80;;;22.70;94.50;;;;;;5029992;28;45113;-62
2023/09/07 03:40:07;;;;;;;6.57;2.60;;;22.70;94.40;;;;;;5016318;28;47010;-61
2023/09/07 03:42:33;;;;;;;4.82;2.67;;;22.70;94.40;;;;;;5013550;28;45215;-61
2023/09/07 03:45:00;;;;;;;4.07;2.38;;;22.70;94.40;;;;;;5010171;28;45172;-61
2023/09/07 03:47:29;;;;;;;3.22;2.38;;;22.70;94.30;;;;;;5017852;28;45285;-61
2023/09/07 03:49:56;;;;;;;4.57;2.30;;;22.70;94.40;;;;;;5022027;28;45250;-62
2023/09/07 03:52:24;;;;;;;3.53;2.45;;;22.70;94.30;;;;;;5022281;28;45138;-62
2023/09/07 03:54:51;;;;;;;3.33;2.47;;;22.70;94.30;;;;;;5022901;28;44782;-61
2023/09/07 03:57:19;;;;;;;4.28;2.40;;;22.70;94.30;;;;;;5012499;28;45151;-61
2023/09/07 03:59:46;;;;;;;3.05;2.38;;;22.70;94.30;;;;;;5022551;28;45157;-61
2023/09/07 04:02:13;;;;;;;3.50;2.42;;;22.70;94.30;;;;;;5024295;28;45295;-61
2023/09/07 04:04:40;;;;;;;3.75;2.50;;;22.70;94.30;;;;;;5015279;28;45041;-62
2023/09/07 04:07:07;;;;;;;3.15;2.25;;;22.70;94.30;;;;;;5012340;28;45144;-61
2023/09/07 04:09:34;;;;;;;4.88;3.00;;;22.70;94.20;;;;;;5022922;28;45475;-62
2023/09/07 04:12:03;;;;;;;3.95;2.70;;;22.70;94.20;;;;;;5021331;28;45096;-62
2023/09/07 04:14:31;;;;;;;2.95;2.42;;;22.70;94.20;;;;;;5015924;28;44941;-63
2023/09/07 04:16:58;;;;;;;4.43;2.60;;;22.70;94.20;;;;;;5017099;28;44716;-62
2023/09/07 04:19:25;;;;;;;2.58;1.90;;;22.70;94.20;;;;;;5022396;28;47334;-61
2023/09/07 04:21:52;;;;;;;2.60;2.25;;;22.70;94.20;;;;;;5024779;28;45096;-61
2023/09/07 04:24:18;;;;;;;3.10;2.38;;;22.70;94.20;;;;;;5024989;28;45241;-61
2023/09/07 04:26:45;;;;;;;4.10;2.58;;;22.70;94.20;;;;;;5025460;28;45433;-61
2023/09/07 04:29:12;;;;;;;3.03;2.10;;;22.70;94.20;;;;;;5030252;28;45127;-61
2023/09/07 04:31:41;;;;;;;2.55;2.22;;;22.70;94.20;;;;;;5048772;28;44933;-61
2023/09/07 04:34:08;;;;;;;7.15;2.70;;;22.70;94.20;;;;;;5037886;28;45172;-61
2023/09/07 04:36:35;;;;;;;2.90;2.03;;;22.70;94.20;;;;;;5019558;28;45176;-61
2023/09/07 04:39:03;;;;;;;3.58;2.30;;;22.70;94.20;;;;;;5035530;28;46703;-61
2023/09/07 04:41:30;;;;;;;4.18;2.55;;;22.70;94.20;;;;;;5024714;28;45269;-62
2023/09/07 04:43:57;;;;;;;3.85;2.55;;;22.70;94.20;;;;;;5025384;28;45085;-61
2023/09/07 04:46:24;;;;;;;2.85;2.47;;;22.70;94.20;;;;;;5013551;28;45096;-61
2023/09/07 04:48:52;;;;;;;2.92;2.47;;;22.70;94.20;;;;;;5015669;28;45111;-61
2023/09/07 04:51:20;;;;;;;3.67;2.67;;;22.70;94.20;;;;;;5021571;28;45137;-61
2023/09/07 04:53:47;;;;;;;3.83;2.75;;;22.70;94.20;;;;;;5024858;28;45189;-62
2023/09/07 04:56:14;;;;;;;3.42;2.70;;;22.70;94.20;;;;;;5016152;28;45269;-61
2023/09/07 04:58:41;;;;;;;2.80;2.45;;;22.70;93.90;;;;;;5028769;28;47356;-62
2023/09/07 05:01:09;;;;;;;3.58;2.83;;;22.70;93.70;;;;;;5005558;28;45069;-61
2023/09/07 05:03:36;;;;;;;3.40;2.63;;;22.60;92.70;;;;;;5011146;28;45183;-61
2023/09/07 05:06:05;;;;;;;3.72;2.60;;;22.60;92.60;;;;;;5015274;28;45244;-62
2023/09/07 05:08:32;;;;;;;3.97;2.72;;;22.60;91.40;;;;;;5017129;28;45056;-61
2023/09/07 05:11:00;;;;;;;3.90;2.90;;;22.60;91.00;;;;;;5013716;28;44600;-61
2023/09/07 05:13:28;;;;;;;3.42;2.33;;;22.60;91.10;;;;;;5020620;28;45141;-61
2023/09/07 05:15:56;;;;;;;5.53;2.65;;;22.60;91.10;;;;;;5024378;28;45120;-61
2023/09/07 05:18:23;;;;;;;3.55;2.42;;;22.60;91.10;;;;;;5020896;28;47412;-61
2023/09/07 05:20:51;;;;;;;4.72;2.47;;;22.60;90.90;;;;;;5025208;28;45193;-61
2023/09/07 05:23:20;;;;;;;3.55;2.33;;;22.60;91.10;;;;;;5024775;28;45181;-61
2023/09/07 05:25:47;;;;;;;3.40;2.50;;;22.60;91.30;;;;;;5023967;28;45270;-61
2023/09/07 05:28:15;;;;;;;3.42;2.47;;;22.60;91.40;;;;;;5036761;28;45124;-61
2023/09/07 05:30:42;;;;;;;3.80;2.80;;;22.60;91.30;;;;;;5038527;28;45160;-60
2023/09/07 05:33:10;;;;;;;4.32;2.70;;;22.60;91.20;;;;;;5024076;28;45099;-62
2023/09/07 05:35:37;;;;;;;3.35;2.65;;;22.60;91.20;;;;;;5023524;28;45123;-61
2023/09/07 05:38:04;;;;;;;3.78;2.45;;;22.60;91.30;;;;;;5016326;28;46352;-61
2023/09/07 05:40:34;;;;;;;3.70;2.40;;;22.60;91.30;;;;;;5023191;28;45104;-61
2023/09/07 05:43:01;;;;;;;3.50;2.58;;;22.60;91.40;;;;;;5024052;28;45167;-61
2023/09/07 05:45:28;;;;;;;3.72;2.60;;;22.60;91.40;;;;;;5023047;28;45299;-61
2023/09/07 05:47:55;;;;;;;3.55;2.13;;;22.60;91.50;;;;;;5021977;28;47467;-62
2023/09/07 05:50:22;;;;;;;3.53;2.17;;;22.60;91.50;;;;;;5015722;28;45123;-61
2023/09/07 05:52:48;;;;;;;4.68;2.13;;;22.70;91.50;;;;;;5020125;28;45122;-61
2023/09/07 05:55:15;;;;;;;4.50;2.38;;;22.70;91.50;;;;;;5020726;28;45352;-61
2023/09/07 05:57:43;;;;;;;3.17;2.22;;;22.70;91.50;;;;;;5028336;28;46302;-61
2023/09/07 06:00:11;;;;;;;5.25;3.00;;;22.70;91.50;;;;;;5034930;28;44811;-63
2023/09/07 06:02:38;;;;;;;6.35;3.13;;;21.30;93.00;;;;;;5019537;28;45348;-63
2023/09/07 06:05:06;;;;;;;4.50;2.97;;;19.90;97.00;;;;;;5022996;28;45120;-63
2023/09/07 06:07:32;;;;;;;5.95;3.47;;;19.90;96.80;;;;;;5023987;28;46247;-62
2023/09/07 06:09:59;;;;;;;4.75;2.85;;;19.80;99.60;;;;;;5022450;28;45139;-62
2023/09/07 06:12:26;;;;;;;5.22;3.15;;;19.70;98.00;;;;;;5018765;28;45144;-62
2023/09/07 06:14:54;;;;;;;8.93;3.90;;;19.00;99.90;;;;;;5019629;28;45230;-62
2023/09/07 06:17:22;;;;;;;8.27;3.75;;;18.80;99.90;;;;;;5021248;28;47250;-62
2023/09/07 06:19:48;;;;;;;8.40;3.50;;;18.60;99.90;;;;;;5021078;28;45134;-62
2023/09/07 06:22:15;;;;;;;5.22;3.40;;;18.80;99.90;;;;;;5016539;28;44585;-62
2023/09/07 06:24:42;;;;;;;5.60;3.45;;;19.30;99.90;;;;;;5021564;28;45208;-62
2023/09/07 06:27:08;;;;;;;6.53;3.70;;;19.20;99.90;;;;;;5020221;28;46458;-62
2023/09/07 06:29:35;;;;;;;10.57;3.33;;;19.60;99.90;;;;;;5011643;28;45183;-62
2023/09/07 06:32:04;;;;;;;4.93;3.17;;;19.90;99.90;;;;;;5021754;28;45061;-62
2023/09/07 06:34:31;;;;;;;5.07;3.42;;;19.30;99.90;;;;;;5021645;28;45368;-62
2023/09/07 06:36:57;;;;;;;7.15;3.60;;;18.90;99.90;;;;;;5022246;28;45215;-62
2023/09/07 06:39:24;;;;;;;8.43;3.65;;;18.80;99.90;;;;;;5011589;28;45184;-62
2023/09/07 06:41:51;;;;;;;4.10;2.90;;;18.70;99.90;;;;;;5014514;28;45206;-62
2023/09/07 06:44:18;;;;;;;6.22;2.95;;;18.90;99.90;;;;;;5014482;28;45204;-63
2023/09/07 06:46:44;;;;;;;8.75;2.90;;;19.90;99.90;;;;;;5009679;28;46380;-62
2023/09/07 06:49:13;;;;;;;4.15;2.53;;;20.50;99.90;;;;;;5019909;28;45189;-62
2023/09/07 06:51:40;;;;;;;3.53;2.70;;;20.90;98.80;;;;;;5018550;28;45143;-62
2023/09/07 06:54:06;;;;;;;6.85;2.67;;;21.10;98.00;;;;;;5018920;28;45390;-63
2023/09/07 06:56:34;;;;;;;3.15;2.70;;;21.30;97.90;;;;;;5021598;28;46291;-62
2023/09/07 06:59:01;;;;;;;6.38;2.70;;;21.40;97.20;;;;;;5023493;28;45199;-62
2023/09/07 07:01:28;;;;;;;4.25;2.50;;;21.40;97.00;;;;;;5013661;28;45208;-63
2023/09/07 07:03:56;;;;;;;5.25;2.53;;;21.50;97.00;;;;;;5023743;28;45140;-62
2023/09/07 07:06:25;;;;;;;4.72;2.50;;;21.40;96.70;;;;;;5009319;28;46352;-62
2023/09/07 07:08:53;;;;;;;4.70;2.90;;;21.30;97.30;;;;;;5018408;28;45438;-62
2023/09/07 07:11:20;;;;;;;4.47;3.05;;;21.40;97.10;;;;;;5020285;28;45100;-62
2023/09/07 07:13:47;;;;;;;7.07;2.75;;;21.30;97.00;;;;;;5024046;28;45260;-62
2023/09/07 07:16:14;;;;;;;8.52;2.60;;;21.40;97.20;;;;;;5021117;28;45248;-62
2023/09/07 07:18:41;;;;;;;4.70;2.60;;;21.40;97.30;;;;;;5017259;28;45277;-60
2023/09/07 07:21:08;;;;;;;2.55;2.08;;;21.40;97.10;;;;;;5017774;28;44831;-62
2023/09/07 07:23:37;;;;;;;5.47;2.90;;;21.40;97.40;;;;;;5022841;28;45403;-62
2023/09/07 07:26:04;;;;;;;3.83;2.42;;;21.60;97.10;;;;;;5018390;28;45421;-62
2023/09/07 07:28:31;;;;;;;4.35;2.20;;;21.60;97.40;;;;;;5017858;28;45230;-62
2023/09/07 07:30:57;;;;;;;6.20;2.65;;;21.60;97.40;;;;;;5020797;28;45172;-62
2023/09/07 07:33:24;;;;;;;3.45;2.50;;;21.70;97.00;;;;;;5021332;28;45376;-62
2023/09/07 07:35:51;;;;;;;4.20;2.83;;;21.70;96.80;;;;;;5016575;28;46251;-62
2023/09/07 07:38:19;;;;;;;4.45;2.72;;;21.70;96.70;;;;;;5023076;28;45054;-62
2023/09/07 07:40:47;;;;;;;3.72;2.50;;;21.60;97.00;;;;;;5023634;28;45187;-62
2023/09/07 07:43:14;;;;;;;5.28;2.90;;;21.60;96.80;;;;;;5020767;28;45265;-62
2023/09/07 07:45:41;;;;;;;4.13;2.58;;;21.60;96.10;;;;;;5017793;28;45231;-62
2023/09/07 07:48:08;;;;;;;4.63;2.35;;;21.60;96.30;;;;;;5020926;28;45095;-62
2023/09/07 07:50:39;;;;;;;5.95;2.70;;;21.60;96.50;;;;;;5021021;28;45131;-62
2023/09/07 07:53:06;;;;;;;4.22;2.67;;;21.60;96.20;;;;;;5013991;28;45338;-62
2023/09/07 07:55:38;;;;;;;3.10;2.33;;;21.60;96.30;;;;;;5018878;28;47292;-62
2023/09/07 07:58:07;;;;;;;3.20;2.10;;;21.70;96.20;;;;;;5021387;28;45298;-62
2023/09/07 08:00:34;;;;;;;2.95;2.13;;;21.70;97.00;;;;;;5026481;28;45195;-62
2023/09/07 08:03:02;;;;;;;5.13;2.40;;;21.70;97.40;;;;;;5021173;28;45212;-62
2023/09/07 08:05:28;;;;;;;2.85;2.15;;;21.80;96.90;;;;;;5015797;28;48591;-62
2023/09/07 08:07:55;;;;;;;3.85;2.60;;;21.80;97.10;;;;;;5023341;28;45084;-62
2023/09/07 08:10:22;;;;;;;3.78;2.50;;;21.80;97.60;;;;;;5024280;28;44620;-62
2023/09/07 08:12:49;;;;;;;7.30;2.92;;;21.80;97.30;;;;;;5025025;28;44637;-62
2023/09/07 08:15:20;;;;;;;4.75;2.70;;;21.80;96.80;;;;;;5023465;28;46501;-62
2023/09/07 08:17:47;;;;;;;4.88;2.28;;;21.80;97.00;;;;;;5020763;28;45073;-62
2023/09/07 08:20:14;;;;;;;4.63;2.60;;;21.80;96.40;;;;;;5026086;28;45172;-62
2023/09/07 08:22:42;;;;;;;11.50;2.47;;;21.80;98.00;;;;;;5024335;28;45181;-62
2023/09/07 08:25:09;;;;;;;5.47;2.40;;;21.80;95.80;;;;;;5024191;28;48637;-60
2023/09/07 08:27:36;;;;;;;4.47;2.50;;;21.80;96.30;;;;;;5021216;28;45072;-61
2023/09/07 08:30:05;;;;;;;10.40;2.90;;;21.90;96.30;;;;;;5026405;28;44547;-63
2023/09/07 08:32:34;;;;;;;6.05;2.47;;;21.90;95.80;;;;;;5012641;28;45150;-63
2023/09/07 08:35:01;;;;;;;4.40;2.08;;;21.90;96.70;;;;;;5008201;28;45216;-63
2023/09/07 08:37:29;;;;;;;4.53;2.45;;;22.00;96.40;;;;;;5020501;28;45177;-63
2023/09/07 08:39:57;;;;;;;3.55;2.60;;;22.00;96.40;;;;;;5026034;28;45163;-63
2023/09/07 08:42:24;;;;;;;3.42;2.30;;;21.90;96.00;;;;;;5016262;28;45207;-62
2023/09/07 08:44:53;;;;;;;7.63;2.30;;;22.00;96.40;;;;;;5024762;28;46389;-63
2023/09/07 08:47:20;;;;;;;4.32;2.40;;;22.00;96.70;;;;;;5019006;28;45087;-63
2023/09/07 08:49:49;;;;;;;4.70;2.60;;;22.00;96.90;;;;;;5020468;28;45128;-63
2023/09/07 08:52:17;;;;;;;6.43;2.33;;;22.00;96.20;;;;;;5023990;28;45258;-63
2023/09/07 08:54:46;;;;;;;4.10;2.30;;;22.10;95.40;;;;;;5016489;28;46243;-62
2023/09/07 08:57:14;;;;;;;4.53;2.65;;;22.10;95.90;;;;;;5016163;28;45116;-62
2023/09/07 08:59:41;;;;;;;2.50;2.03;;;22.10;95.00;;;;;;5006246;28;45304;-63
2023/09/07 09:02:10;;;;;;;3.50;2.40;;;22.20;95.50;;;;;;5017517;28;45169;-63
2023/09/07 09:04:38;;;;;;;4.22;1.92;;;22.10;95.40;;;;;;5020234;28;46677;-63
2023/09/07 09:07:06;;;;;;;5.53;2.50;;;22.20;95.60;;;;;;5011426;28;44695;-63
2023/09/07 09:09:33;;;;;;;3.13;2.28;;;22.20;95.40;;;;;;5023036;28;45254;-63
2023/09/07 09:12:08;;;;;;;3.92;2.15;;;22.20;94.90;;;;;;5025236;28;45057;-63
2023/09/07 09:14:35;;;;;;;4.70;2.50;;;22.20;94.90;;;;;;5023117;28;47309;-63
2023/09/07 09:17:02;;;;;;;3.17;2.35;;;22.20;94.60;;;;;;5022568;28;45321;-63
2023/09/07 09:19:32;;;;;;;3.78;2.38;;;22.20;94.90;;;;;;5023332;28;45132;-63
2023/09/07 09:21:59;;;;;;;3.10;2.15;;;22.20;95.10;;;;;;5013447;28;45408;-63
2023/09/07 09:24:27;;;;;;;7.43;2.67;;;22.20;95.20;;;;;;5020638;28;46229;-63
2023/09/07 09:26:54;;;;;;;4.78;2.60;;;22.20;94.90;;;;;;5020920;28;45059;-63
2023/09/07 09:29:23;;;;;;;3.00;1.70;;;22.20;94.90;;;;;;5014719;28;45215;-63
2023/09/07 09:31:52;;;;;;;3.95;2.60;;;22.20;95.50;;;;;;5009442;28;45241;-63
2023/09/07 09:34:20;;;;;;;3.70;2.35;;;22.20;94.80;;;;;;5022620;28;46141;-63
2023/09/07 09:36:46;;;;;;;5.90;2.22;;;22.30;95.10;;;;;;5024504;28;46418;-63
2023/09/07 09:39:23;;;;;;;3.05;2.30;;;22.30;94.90;;;;;;5022608;28;45068;-63
2023/09/07 09:41:52;;;;;;;3.63;2.42;;;22.20;96.00;;;;;;5018567;28;45161;-63
2023/09/07 09:44:25;;;;;;;5.25;2.30;;;22.20;95.20;;;;;;5023616;28;47026;-63
2023/09/07 09:46:53;;;;;;;3.78;2.72;;;22.30;95.40;;;;;;5014512;28;45111;-63
2023/09/07 09:49:21;;;;;;;5.28;2.55;;;22.30;94.90;;;;;;5024716;28;45453;-63
2023/09/07 09:51:50;;;;;;;5.03;2.55;;;22.30;95.00;;;;;;5014826;28;45117;-63
2023/09/07 09:54:18;;;;;;;5.93;2.67;;;22.30;95.00;;;;;;5024012;28;47108;-63
2023/09/07 09:56:45;;;;;;;3.42;2.33;;;22.20;94.90;;;;;;5023038;28;45159;-63
2023/09/07 09:59:14;;;;;;;5.25;2.50;;;22.20;96.70;;;;;;5023304;28;44663;-63
2023/09/07 10:01:46;;;;;;;2.95;2.15;;;22.10;95.70;;;;;;5020661;28;45092;-63
2023/09/07 10:04:16;;;;;;;5.30;2.70;;;22.20;95.90;;;;;;5020677;28;45440;-63
2023/09/07 10:06:54;;;;;;;2.00;1.67;;;22.20;95.70;;;;;;5018203;28;45255;-63
2023/09/07 10:09:21;;;;;;;2.50;2.08;;;22.20;96.10;;;;;;5022449;28;45131;-62
2023/09/07 10:11:54;;;;;;;3.83;2.17;;;22.20;96.10;;;;;;5010750;28;45319;-63
2023/09/07 10:14:22;;;;;;;4.45;2.20;;;22.20;95.90;;;;;;5016011;28;45218;-63
2023/09/07 10:16:52;;;;;;;4.85;2.40;;;22.30;96.00;;;;;;5014496;28;45293;-63
2023/09/07 10:19:20;;;;;;;3.45;2.47;;;22.30;96.30;;;;;;5014162;28;45256;-62
2023/09/07 10:21:47;;;;;;;2.60;1.90;;;22.30;96.30;;;;;;5016327;28;45254;-62
2023/09/07 10:24:25;;;;;;;2.38;1.73;;;22.30;96.20;;;;;;5020682;28;45268;-62
2023/09/07 10:26:58;;;;;;;2.50;1.60;;;22.30;96.10;;;;;;5022171;28;44607;-63
2023/09/07 10:29:27;;;;;;;2.97;2.00;;;22.30;96.20;;;;;;5022598;28;45194;-63
2023/09/07 10:31:54;;;;;;;2.70;1.75;;;22.30;96.00;;;;;;5012693;28;45123;-63
2023/09/07 10:34:22;;;;;;;3.40;2.10;;;22.30;96.10;;;;;;5022839;28;46043;-63
2023/09/07 10:36:52;;;;;;;6.07;2.70;;;22.30;95.90;;;;;;5016729;28;45164;-63
2023/09/07 10:39:19;;;;;;;4.40;1.88;;;22.40;95.50;;;;;;5024320;28;45191;-63
2023/09/07 10:41:47;;;;;;;3.72;2.67;;;22.30;95.80;;;;;;5021315;28;45191;-63
2023/09/07 10:44:14;;;;;;;6.35;2.60;;;22.40;95.90;;;;;;5018763;28;46502;-63
2023/09/07 10:46:42;;;;;;;3.20;1.90;;;22.40;96.00;;;;;;5025726;28;45163;-62
2023/09/07 10:49:12;;;;;;;2.63;1.70;;;22.40;96.10;;;;;;5023530;28;45128;-62
2023/09/07 10:51:44;;;;;;;3.33;2.45;;;22.40;96.20;;;;;;5022043;28;45300;-63
2023/09/07 10:54:17;;;;;;;4.53;2.30;;;22.40;96.00;;;;;;5022902;28;45225;-63
2023/09/07 10:56:46;;;;;;;2.30;1.70;;;22.50;96.10;;;;;;5015222;28;45172;-63
2023/09/07 10:59:14;;;;;;;2.35;1.55;;;22.40;96.20;;;;;;5023933;28;45235;-63
2023/09/07 11:01:42;;;;;;;2.28;1.80;;;22.40;96.30;;;;;;5017657;28;44849;-63
2023/09/07 11:04:11;;;;;;;3.60;2.30;;;22.30;96.30;;;;;;5003502;28;47210;-63
2023/09/07 11:06:38;;;;;;;1.75;1.50;;;22.40;96.40;;;;;;5007131;28;45263;-63
2023/09/07 11:09:08;;;;;;;2.60;1.90;;;22.40;96.30;;;;;;5005837;28;45147;-63
2023/09/07 11:11:36;;;;;;;1.77;1.50;;;22.30;96.30;;;;;;5014403;28;45075;-63
2023/09/07 11:14:04;;;;;;;2.08;1.63;;;22.40;96.40;;;;;;5015503;28;45418;-63
2023/09/07 11:16:31;;;;;;;3.83;2.10;;;22.40;96.40;;;;;;5011659;28;45325;-62
2023/09/07 11:19:04;;;;;;;3.83;2.42;;;22.40;96.50;;;;;;5005690;28;45549;-63
2023/09/07 11:21:34;;;;;;;1.90;1.45;;;22.40;96.50;;;;;;5014516;28;45134;-62
2023/09/07 11:24:04;;;;;;;2.15;1.88;;;22.50;96.20;;;;;;5018381;28;45445;-62
2023/09/07 11:26:41;;;;;;;3.08;1.92;;;22.50;96.10;;;;;;5012354;28;45111;-62
2023/09/07 11:29:07;;;;;;;2.58;1.58;;;22.50;96.10;;;;;;5018768;28;45045;-62
2023/09/07 11:31:34;;;;;;;2.50;1.90;;;22.50;96.20;;;;;;5008688;28;45293;-63
2023/09/07 11:34:04;;;;;;;2.78;2.08;;;22.40;96.30;;;;;;5018678;28;45297;-62
2023/09/07 11:36:30;;;;;;;2.78;2.00;;;22.40;96.40;;;;;;5020075;28;45262;-62
2023/09/07 11:38:57;;;;;;;2.10;1.50;;;22.40;96.50;;;;;;5016172;28;45152;-63
2023/09/07 11:41:24;;;;;;;2.03;1.70;;;22.40;96.60;;;;;;5017113;28;45217;-63
2023/09/07 11:43:51;;;;;;;2.70;1.85;;;22.40;96.60;;;;;;5015830;28;45195;-62
2023/09/07 11:46:17;;;;;;;2.80;2.33;;;22.40;96.70;;;;;;5005895;28;45190;-62
2023/09/07 11:48:44;;;;;;;5.72;1.88;;;22.40;97.00;;;;;;5011797;28;45171;-63
2023/09/07 11:51:12;;;;;;;2.70;2.20;;;22.40;96.80;;;;;;5011611;28;45133;-62
2023/09/07 11:53:39;;;;;;;3.00;1.77;;;22.40;98.50;;;;;;5020975;28;46363;-63
2023/09/07 11:56:06;;;;;;;3.50;2.20;;;22.40;97.20;;;;;;5012557;28;45140;-63
2023/09/07 11:58:33;;;;;;;4.80;2.28;;;22.40;97.10;;;;;;5020438;28;45164;-62
2023/09/07 12:01:00;;;;;;;4.78;2.33;;;22.40;96.90;;;;;;5020199;28;45202;-63
2023/09/07 12:03:29;;;;;;;2.45;1.48;;;22.40;96.90;;;;;;5013187;28;46343;-62
2023/09/07 12:05:56;;;;;;;3.75;2.00;;;22.40;96.90;;;;;;5014758;28;45243;-62
2023/09/07 12:08:24;;;;;;;4.63;2.17;;;22.40;96.90;;;;;;5011704;28;45372;-62
2023/09/07 12:10:51;;;;;;;1.88;1.63;;;22.50;96.80;;;;;;5011748;28;45148;-63
2023/09/07 12:13:18;;;;;;;2.35;1.60;;;22.50;96.90;;;;;;5021392;28;47117;-63
2023/09/07 12:15:45;;;;;;;2.67;1.63;;;22.50;96.80;;;;;;5012888;28;45155;-62
2023/09/07 12:18:12;;;;;;;1.98;1.60;;;22.40;96.80;;;;;;5017006;28;45305;-62
2023/09/07 12:20:38;;;;;;;2.70;1.60;;;22.40;96.90;;;;;;5017164;28;45135;-63
2023/09/07 12:23:05;;;;;;;3.92;1.85;;;22.40;96.70;;;;;;5024072;28;46359;-62
2023/09/07 12:25:33;;;;;;;1.77;1.58;;;22.50;96.60;;;;;;5019166;28;45148;-63
2023/09/07 12:28:00;;;;;;;2.40;1.60;;;22.50;96.70;;;;;;5025391;28;45112;-62
2023/09/07 12:30:28;;;;;;;3.45;2.38;;;22.40;96.70;;;;;;5018522;28;45136;-62
2023/09/07 12:32:55;;;;;;;2.47;1.92;;;22.50;96.50;;;;;;5011232;28;47230;-62
2023/09/07 12:35:21;;;;;;;2.28;1.60;;;22.50;96.10;;;;;;5008874;28;44671;-63
2023/09/07 12:37:48;;;;;;;5.03;2.60;;;22.50;96.30;;;;;;5014830;28;45118;-63
2023/09/07 12:40:15;;;;;;;1.75;1.55;;;22.60;96.20;;;;;;5011852;28;45259;-63
2023/09/07 12:42:45;;;;;;;5.20;1.80;;;22.60;96.30;;;;;;5023059;28;45299;-63
2023/09/07 12:45:14;;;;;;;2.13;1.50;;;22.50;96.50;;;;;;5010734;28;45342;-63
2023/09/07 12:47:40;;;;;;;4.30;2.40;;;22.50;96.60;;;;;;5017237;28;44713;-63